createdAt,value
2018-11-06T00:01:29.638Z,72.65
2018-11-06T00:04:02.901Z,72.08
2018-11-06T00:06:31.653Z,72.50
2018-11-06T00:09:00.664Z,73.35
2018-11-06T00:11:28.996Z,73.21
2018-11-06T00:13:57.343Z,73.06
2018-11-06T00:16:25.680Z,73.19
2018-11-06T00:18:54.026Z,73.16
2018-11-06T00:21:22.368Z,73.00
2018-11-06T00:23:50.730Z,73.17
2018-11-06T00:26:19.098Z,73.05
2018-11-06T00:28:47.436Z,73.62
2018-11-06T00:31:15.751Z,73.52
2018-11-06T00:33:44.092Z,73.65
2018-11-06T00:36:12.440Z,73.61
2018-11-06T00:38:40.797Z,73.77
2018-11-06T00:41:09.147Z,73.95
2018-11-06T00:43:37.508Z,73.87
2018-11-06T00:46:05.952Z,73.88
2018-11-06T00:48:34.299Z,74.17
2018-11-06T00:51:02.652Z,73.82
2018-11-06T00:53:30.990Z,74.39
2018-11-06T00:55:59.334Z,74.28
2018-11-06T00:58:27.713Z,74.61
2018-11-06T01:00:56.061Z,74.06
2018-11-06T01:03:29.832Z,74.58
2018-11-06T01:05:58.176Z,74.41
2018-11-06T01:08:26.521Z,74.58
2018-11-06T01:10:54.833Z,74.51
2018-11-06T01:13:23.253Z,74.61
2018-11-06T01:15:51.596Z,74.58
2018-11-06T01:18:19.930Z,74.68
2018-11-06T01:20:48.271Z,74.82
2018-11-06T01:23:17.429Z,74.87
2018-11-06T01:25:45.757Z,75.24
2018-11-06T01:28:14.125Z,75.00
2018-11-06T01:30:42.481Z,75.10
2018-11-06T01:33:10.824Z,75.02
2018-11-06T01:35:39.178Z,75.39
2018-11-06T01:38:07.856Z,75.32
2018-11-06T01:40:36.203Z,75.33
2018-11-06T01:43:04.584Z,75.81
2018-11-06T01:45:33.437Z,75.48
2018-11-06T01:48:01.785Z,75.61
2018-11-06T01:50:30.129Z,75.70
2018-11-06T01:52:58.482Z,75.58
2018-11-06T01:55:26.956Z,75.82
2018-11-06T01:57:55.300Z,75.74
2018-11-06T02:00:23.640Z,76.22
2018-11-06T02:02:51.993Z,76.10
2018-11-06T02:05:20.339Z,76.15
2018-11-06T02:07:49.807Z,76.29
2018-11-06T02:10:18.588Z,76.59
2018-11-06T02:12:47.583Z,76.45
2018-11-06T02:15:15.935Z,76.14
2018-11-06T02:17:44.955Z,76.25
2018-11-06T02:20:14.054Z,76.62
2018-11-06T02:22:43.360Z,76.98
2018-11-06T02:25:12.247Z,76.73
2018-11-06T02:27:40.598Z,76.87
2018-11-06T02:30:10.856Z,77.32
2018-11-06T02:32:39.252Z,76.88
2018-11-06T02:35:07.912Z,77.12
2018-11-06T02:37:36.493Z,77.73
2018-11-06T02:40:05.196Z,77.19
2018-11-06T02:42:33.536Z,77.63
2018-11-06T02:45:01.881Z,77.58
2018-11-06T02:47:30.257Z,77.54
2018-11-06T02:49:58.600Z,77.74
2018-11-06T02:52:26.944Z,77.61
2018-11-06T02:54:55.277Z,77.57
2018-11-06T02:57:23.629Z,78.19
2018-11-06T02:59:52.007Z,78.16
2018-11-06T03:02:20.351Z,77.79
2018-11-06T03:04:48.743Z,77.85
2018-11-06T03:07:17.063Z,78.91
2018-11-06T03:09:45.433Z,78.00
2018-11-06T03:12:13.762Z,78.75
2018-11-06T03:14:42.097Z,78.54
2018-11-06T03:17:10.450Z,78.14
2018-11-06T03:19:38.813Z,78.80
2018-11-06T03:22:07.160Z,78.52
2018-11-06T03:24:35.508Z,78.72
2018-11-06T03:27:03.913Z,79.21
2018-11-06T03:29:32.212Z,79.13
2018-11-06T03:32:00.740Z,79.37
2018-11-06T03:34:29.090Z,79.62
2018-11-06T03:36:57.420Z,79.30
2018-11-06T03:39:25.794Z,80.13
2018-11-06T03:41:54.151Z,79.93
2018-11-06T03:44:22.501Z,80.36
2018-11-06T03:46:50.830Z,80.26
2018-11-06T03:49:19.195Z,80.70
2018-11-06T03:51:47.568Z,80.90
2018-11-06T03:54:15.910Z,80.50
2018-11-06T03:56:44.246Z,80.47
2018-11-06T03:59:12.593Z,81.03
2018-11-06T04:01:40.945Z,81.75
2018-11-06T04:04:09.288Z,80.91
2018-11-06T04:06:37.613Z,81.55
2018-11-06T04:09:09.136Z,80.41
2018-11-06T04:11:37.772Z,81.56
2018-11-06T04:14:06.679Z,82.58
2018-11-06T04:16:35.035Z,81.59
2018-11-06T04:19:03.524Z,82.58
2018-11-06T04:21:35.184Z,81.63
2018-11-06T04:24:04.276Z,81.80
2018-11-06T04:26:32.861Z,81.81
2018-11-06T04:29:01.441Z,82.29
2018-11-06T04:31:29.801Z,81.95
2018-11-06T04:33:58.141Z,82.54
2018-11-06T04:36:26.485Z,83.07
2018-11-06T04:38:54.832Z,83.17
2018-11-06T04:41:23.235Z,82.90
2018-11-06T04:43:51.941Z,83.87
2018-11-06T04:46:20.496Z,83.62
2018-11-06T04:48:49.187Z,83.35
2018-11-06T04:51:17.795Z,83.43
2018-11-06T04:53:46.149Z,83.87
2018-11-06T04:56:14.485Z,83.65
2018-11-06T04:58:42.827Z,83.51
2018-11-06T05:01:11.175Z,82.91
2018-11-06T05:03:44.719Z,83.40
2018-11-06T05:06:13.066Z,83.21
2018-11-06T05:08:41.420Z,82.79
2018-11-06T05:11:09.769Z,83.69
2018-11-06T05:13:38.268Z,83.78
2018-11-06T05:16:06.799Z,83.32
2018-11-06T05:18:35.280Z,83.37
2018-11-06T05:21:03.773Z,82.72
2018-11-06T05:23:32.126Z,83.34
2018-11-06T05:26:00.635Z,83.37
2018-11-06T05:28:29.220Z,83.39
2018-11-06T05:30:57.588Z,83.50
2018-11-06T05:33:26.371Z,83.24
2018-11-06T05:35:54.704Z,84.64
2018-11-06T05:38:23.084Z,84.21
2018-11-06T05:41:02.684Z,84.07
2018-11-06T05:43:31.099Z,84.73
2018-11-06T05:45:59.485Z,84.34
2018-11-06T05:48:27.924Z,85.23
2018-11-06T05:50:56.863Z,84.90
2018-11-06T05:53:25.201Z,85.05
2018-11-06T05:55:53.569Z,85.18
2018-11-06T05:58:21.952Z,85.11
2018-11-06T06:00:50.317Z,84.59
2018-11-06T06:03:18.692Z,84.90
2018-11-06T06:05:47.015Z,85.69
2018-11-06T06:08:15.375Z,86.36
2018-11-06T06:10:43.796Z,87.04
2018-11-06T06:13:12.153Z,86.66
2018-11-06T06:15:40.537Z,87.10
2018-11-06T06:18:08.885Z,86.71
2018-11-06T06:20:38.202Z,86.00
2018-11-06T06:23:06.798Z,86.10
2018-11-06T06:25:35.161Z,85.77
2018-11-06T06:28:03.525Z,86.75
2018-11-06T06:30:31.871Z,86.63
2018-11-06T06:33:00.229Z,86.97
2018-11-06T06:35:28.597Z,87.13
2018-11-06T06:37:56.967Z,86.92
2018-11-06T06:40:25.305Z,87.73
2018-11-06T06:42:53.664Z,86.76
2018-11-06T06:45:21.984Z,87.06
2018-11-06T06:47:50.695Z,87.62
2018-11-06T06:50:19.964Z,88.18
2018-11-06T06:52:48.836Z,88.14
2018-11-06T06:55:17.717Z,87.66
2018-11-06T06:57:46.943Z,88.52
2018-11-06T07:00:16.647Z,87.90
2018-11-06T07:02:45.046Z,88.60
2018-11-06T07:05:14.839Z,89.05
2018-11-06T07:07:43.861Z,88.31
2018-11-06T07:10:14.182Z,88.59
2018-11-06T07:12:43.544Z,88.32
2018-11-06T07:15:13.661Z,88.67
2018-11-06T07:17:42.380Z,88.56
2018-11-06T07:20:13.924Z,88.64
2018-11-06T07:22:42.343Z,88.43
2018-11-06T07:25:11.709Z,88.75
2018-11-06T07:27:41.113Z,87.93
2018-11-06T07:30:11.749Z,87.76
2018-11-06T07:32:40.735Z,87.43
2018-11-06T07:35:09.815Z,87.75
2018-11-06T07:37:38.938Z,87.94
2018-11-06T07:40:09.467Z,87.91
2018-11-06T07:42:37.948Z,87.37
2018-11-06T07:45:08.985Z,87.59
2018-11-06T07:47:37.459Z,86.90
2018-11-06T07:50:06.736Z,87.15
2018-11-06T07:52:35.457Z,87.10
2018-11-06T07:55:03.972Z,86.64
2018-11-06T07:57:32.323Z,86.37
2018-11-06T08:00:00.729Z,85.52
2018-11-06T08:02:29.134Z,85.10
2018-11-06T08:04:58.332Z,85.03
2018-11-06T08:07:26.689Z,84.56
2018-11-06T08:09:55.098Z,84.74
2018-11-06T08:12:23.441Z,83.59
2018-11-06T08:14:51.862Z,83.01
2018-11-06T08:17:20.203Z,82.95
2018-11-06T08:19:48.549Z,82.92
2018-11-06T08:22:17.060Z,82.12
2018-11-06T08:24:45.445Z,81.88
2018-11-06T08:27:13.817Z,81.58
2018-11-06T08:29:42.230Z,81.56
2018-11-06T08:32:10.866Z,79.98
2018-11-06T08:34:38.956Z,80.12
2018-11-06T08:37:07.391Z,80.40
2018-11-06T08:39:35.662Z,80.88
2018-11-06T08:42:04.263Z,78.92
2018-11-06T08:44:32.611Z,79.17
2018-11-06T08:47:01.127Z,78.79
2018-11-06T08:49:29.476Z,79.13
2018-11-06T08:51:57.817Z,78.63
2018-11-06T08:54:26.182Z,78.03
2018-11-06T08:56:54.505Z,77.81
2018-11-06T08:59:22.863Z,75.67
2018-11-06T09:01:51.229Z,77.09
2018-11-06T09:04:19.590Z,75.84
2018-11-06T09:06:47.972Z,76.93
2018-11-06T09:09:16.313Z,77.02
2018-11-06T09:11:44.645Z,76.51
2018-11-06T09:14:12.985Z,75.54
2018-11-06T09:16:41.327Z,72.46
2018-11-06T09:19:09.685Z,73.66
2018-11-06T09:21:38.024Z,75.32
2018-11-06T09:24:06.689Z,73.55
2018-11-06T09:26:35.022Z,72.65
2018-11-06T09:29:03.372Z,71.09
2018-11-06T09:31:31.713Z,72.57
2018-11-06T09:34:00.220Z,71.89
2018-11-06T09:36:29.104Z,70.05
2018-11-06T09:38:57.718Z,71.97
2018-11-06T09:41:26.079Z,71.01
2018-11-06T09:43:54.552Z,68.53
2018-11-06T09:46:23.336Z,71.93
2018-11-06T09:48:51.718Z,70.87
2018-11-06T09:51:20.075Z,70.30
2018-11-06T09:53:48.488Z,65.39
2018-11-06T09:56:16.833Z,69.05
2018-11-06T09:58:45.171Z,70.26
2018-11-06T10:01:13.658Z,67.08
2018-11-06T10:03:42.033Z,69.60
2018-11-06T10:06:10.478Z,67.37
2018-11-06T10:08:38.802Z,66.07
2018-11-06T10:11:07.444Z,67.15
2018-11-06T10:13:36.006Z,66.94
2018-11-06T10:16:04.353Z,68.63
2018-11-06T10:18:32.704Z,65.13
2018-11-06T10:21:01.163Z,67.82
2018-11-06T10:23:29.490Z,67.00
2018-11-06T10:25:57.830Z,65.76
2018-11-06T10:28:26.219Z,65.39
2018-11-06T10:30:54.782Z,66.71
2018-11-06T10:33:23.551Z,64.93
2018-11-06T10:35:51.889Z,66.86
2018-11-06T10:38:20.334Z,65.12
2018-11-06T10:40:48.711Z,66.25
2018-11-06T10:43:17.089Z,65.73
2018-11-06T10:45:45.480Z,66.24
2018-11-06T10:48:13.864Z,67.06
2018-11-06T10:50:42.772Z,65.27
2018-11-06T10:53:11.158Z,65.68
2018-11-06T10:55:39.968Z,66.73
2018-11-06T10:58:08.377Z,66.36
2018-11-06T11:00:42.066Z,66.23
2018-11-06T11:03:15.708Z,66.21
2018-11-06T11:05:44.057Z,65.90
2018-11-06T11:08:12.387Z,66.91
2018-11-06T11:10:40.730Z,66.23
2018-11-06T11:13:09.076Z,65.84
2018-11-06T11:15:37.418Z,66.24
2018-11-06T11:18:05.771Z,65.28
2018-11-06T11:20:34.112Z,66.38
2018-11-06T11:23:02.458Z,66.27
2018-11-06T11:25:30.847Z,65.96
2018-11-06T11:27:59.180Z,65.78
2018-11-06T11:30:27.597Z,65.51
2018-11-06T11:32:55.938Z,65.23
2018-11-06T11:35:24.297Z,66.46
2018-11-06T11:37:52.671Z,66.07
2018-11-06T11:40:21.009Z,65.45
2018-11-06T11:42:49.393Z,65.70
2018-11-06T11:45:17.769Z,66.36
2018-11-06T11:47:46.117Z,66.31
2018-11-06T11:50:15.406Z,64.36
2018-11-06T11:52:43.760Z,65.36
2018-11-06T11:55:12.264Z,64.51
2018-11-06T11:57:41.059Z,65.82
2018-11-06T12:00:13.311Z,64.38
2018-11-06T12:02:41.611Z,65.05
2018-11-06T12:05:11.414Z,64.86
2018-11-06T12:07:39.839Z,65.42
2018-11-06T12:10:09.916Z,65.64
2018-11-06T12:12:38.488Z,65.87
2018-11-06T12:15:09.168Z,65.99
2018-11-06T12:17:37.555Z,66.23
2018-11-06T12:20:06.116Z,65.85
2018-11-06T12:22:34.520Z,66.48
2018-11-06T12:25:03.129Z,66.74
2018-11-06T12:27:31.345Z,66.14
2018-11-06T12:29:59.722Z,66.35
2018-11-06T12:32:28.109Z,66.15
2018-11-06T12:34:56.517Z,66.10
2018-11-06T12:37:24.895Z,66.63
2018-11-06T12:39:53.236Z,66.30
2018-11-06T12:42:21.824Z,65.12
2018-11-06T12:44:50.245Z,66.34
2018-11-06T12:47:18.575Z,65.92
2018-11-06T12:49:46.994Z,66.31
2018-11-06T12:52:15.374Z,66.37
2018-11-06T12:54:44.132Z,66.46
2018-11-06T12:57:12.503Z,66.34
2018-11-06T12:59:40.858Z,65.72
2018-11-06T13:02:09.252Z,65.74
2018-11-06T13:04:37.615Z,66.35
2018-11-06T13:07:05.995Z,65.03
2018-11-06T13:09:34.367Z,66.00
2018-11-06T13:12:02.720Z,65.73
2018-11-06T13:14:31.085Z,65.09
2018-11-06T13:16:59.459Z,65.51
2018-11-06T13:19:27.889Z,65.68
2018-11-06T13:21:56.229Z,65.14
2018-11-06T13:24:24.617Z,65.78
2018-11-06T13:26:53.099Z,65.87
2018-11-06T13:29:22.014Z,66.11
2018-11-06T13:31:50.359Z,65.70
2018-11-06T13:34:18.704Z,65.81
2018-11-06T13:36:47.064Z,65.88
2018-11-06T13:39:15.430Z,65.77
2018-11-06T13:41:44.258Z,65.44
2018-11-06T13:44:13.006Z,65.90
2018-11-06T13:46:41.241Z,66.70
2018-11-06T13:49:09.594Z,66.70
2018-11-06T13:51:37.968Z,66.30
2018-11-06T13:54:06.527Z,67.06
2018-11-06T13:56:34.868Z,67.03
2018-11-06T13:59:03.231Z,67.41
2018-11-06T14:01:31.634Z,67.59
2018-11-06T14:04:00.015Z,66.95
2018-11-06T14:06:28.392Z,67.50
2018-11-06T14:08:56.759Z,67.76
2018-11-06T14:11:25.136Z,67.16
2018-11-06T14:13:53.527Z,67.60
2018-11-06T14:16:21.921Z,67.79
2018-11-06T14:18:50.300Z,67.66
2018-11-06T14:21:18.690Z,67.80
2018-11-06T14:23:46.995Z,67.63
2018-11-06T14:26:15.574Z,67.84
2018-11-06T14:28:43.905Z,67.72
2018-11-06T14:31:12.244Z,67.80
2018-11-06T14:33:40.699Z,67.75
2018-11-06T14:36:09.045Z,68.40
2018-11-06T14:38:37.397Z,68.14
2018-11-06T14:41:05.877Z,68.13
2018-11-06T14:43:34.236Z,68.25
2018-11-06T14:46:02.584Z,68.70
2018-11-06T14:48:31.033Z,68.69
2018-11-06T14:50:59.316Z,69.17
2018-11-06T14:53:27.692Z,68.64
2018-11-06T14:55:56.318Z,69.03
2018-11-06T14:58:24.676Z,69.22
2018-11-06T15:00:53.040Z,69.17
2018-11-06T15:03:21.400Z,69.54
2018-11-06T15:05:49.749Z,69.68
2018-11-06T15:08:18.105Z,69.42
2018-11-06T15:10:46.478Z,70.25
2018-11-06T15:13:14.866Z,70.64
2018-11-06T15:15:43.213Z,70.42
2018-11-06T15:18:11.570Z,71.13
2018-11-06T15:20:39.992Z,70.81
2018-11-06T15:23:08.322Z,71.05
2018-11-06T15:25:36.758Z,70.71
2018-11-06T15:28:05.142Z,71.28
2018-11-06T15:30:33.556Z,71.74
2018-11-06T15:33:01.903Z,71.40
2018-11-06T15:35:30.246Z,71.05
2018-11-06T15:37:58.632Z,71.94
2018-11-06T15:40:27.002Z,71.61
2018-11-06T15:42:55.375Z,71.86
2018-11-06T15:45:23.702Z,71.96
2018-11-06T15:47:52.133Z,72.08
2018-11-06T15:50:21.132Z,72.22
2018-11-06T15:52:50.393Z,71.89
2018-11-06T15:55:18.750Z,72.30
2018-11-06T15:57:47.099Z,72.02
2018-11-06T16:00:17.577Z,72.25
2018-11-06T16:02:46.368Z,72.41
2018-11-06T16:05:14.756Z,72.42
2018-11-06T16:07:43.174Z,72.35
2018-11-06T16:10:14.140Z,73.40
2018-11-06T16:12:43.154Z,72.48
2018-11-06T16:15:11.633Z,73.08
2018-11-06T16:17:39.945Z,73.53
2018-11-06T16:20:10.450Z,73.47
2018-11-06T16:22:38.824Z,72.82
2018-11-06T16:25:08.940Z,73.28
2018-11-06T16:27:37.376Z,73.32
2018-11-06T16:30:07.116Z,73.42
2018-11-06T16:32:35.464Z,75.19
2018-11-06T16:35:03.869Z,74.11
2018-11-06T16:37:32.228Z,74.25
2018-11-06T16:40:00.580Z,75.58
2018-11-06T16:42:28.944Z,74.61
2018-11-06T16:44:57.312Z,74.42
2018-11-06T16:47:25.668Z,74.96
2018-11-06T16:49:54.030Z,74.89
2018-11-06T16:52:22.365Z,75.51
2018-11-06T16:54:50.802Z,75.88
2018-11-06T16:57:19.219Z,76.43
2018-11-06T16:59:47.600Z,76.62
2018-11-06T17:02:15.976Z,76.02
2018-11-06T17:04:44.329Z,76.19
2018-11-06T17:07:12.713Z,76.05
2018-11-06T17:09:41.053Z,76.98
2018-11-06T17:12:09.431Z,76.17
2018-11-06T17:14:37.778Z,76.98
2018-11-06T17:17:06.633Z,76.70
2018-11-06T17:19:35.010Z,76.03
2018-11-06T17:22:03.385Z,76.76
2018-11-06T17:24:31.716Z,76.35
2018-11-06T17:27:00.175Z,76.89
2018-11-06T17:29:28.642Z,76.86
2018-11-06T17:31:57.037Z,76.57
2018-11-06T17:34:25.420Z,76.32
2018-11-06T17:36:53.793Z,77.22
2018-11-06T17:39:22.203Z,77.35
2018-11-06T17:41:50.538Z,77.87
2018-11-06T17:44:18.902Z,76.85
2018-11-06T17:46:47.254Z,77.24
2018-11-06T17:49:15.631Z,77.55
2018-11-06T17:51:43.979Z,77.72
2018-11-06T17:54:12.353Z,77.90
2018-11-06T17:56:40.929Z,78.22
2018-11-06T17:59:09.309Z,77.87
2018-11-06T18:01:37.659Z,77.66
2018-11-06T18:04:06.934Z,76.87
2018-11-06T18:06:35.175Z,77.51
2018-11-06T18:09:03.964Z,78.16
2018-11-06T18:11:32.419Z,77.57
2018-11-06T18:14:00.790Z,78.35
2018-11-06T18:16:29.132Z,78.73
2018-11-06T18:18:57.512Z,78.58
2018-11-06T18:21:25.861Z,77.84
2018-11-06T18:23:54.780Z,78.37
2018-11-06T18:26:23.128Z,78.25
2018-11-06T18:28:51.640Z,78.02
2018-11-06T18:31:19.983Z,79.07
2018-11-06T18:33:48.366Z,78.74
2018-11-06T18:36:16.722Z,78.46
2018-11-06T18:38:45.088Z,78.08
2018-11-06T18:41:13.594Z,78.25
2018-11-06T18:43:41.945Z,78.83
2018-11-06T18:46:10.364Z,78.54
2018-11-06T18:48:38.745Z,78.37
2018-11-06T18:51:07.108Z,78.26
2018-11-06T18:53:35.920Z,78.73
2018-11-06T18:56:04.560Z,78.73
2018-11-06T18:58:32.962Z,78.10
2018-11-06T19:01:01.291Z,78.80
2018-11-06T19:03:29.672Z,79.21
2018-11-06T19:05:58.014Z,78.96
2018-11-06T19:08:26.389Z,79.55
2018-11-06T19:10:55.698Z,78.66
2018-11-06T19:13:24.065Z,78.70
2018-11-06T19:15:52.415Z,78.77
2018-11-06T19:18:20.745Z,79.80
2018-11-06T19:20:49.105Z,79.01
2018-11-06T19:23:18.105Z,78.75
2018-11-06T19:25:46.514Z,79.43
2018-11-06T19:28:14.856Z,79.15
2018-11-06T19:30:43.199Z,79.69
2018-11-06T19:33:11.550Z,79.27
2018-11-06T19:35:39.888Z,79.45
2018-11-06T19:38:08.361Z,79.88
2018-11-06T19:40:36.810Z,79.95
2018-11-06T19:43:05.300Z,79.98
2018-11-06T19:45:33.690Z,80.04
2018-11-06T19:48:02.129Z,79.99
2018-11-06T19:50:30.477Z,79.50
2018-11-06T19:52:59.294Z,79.12
2018-11-06T19:55:27.704Z,79.45
2018-11-06T19:57:56.063Z,79.98
2018-11-06T20:00:24.647Z,80.75
2018-11-06T20:02:53.832Z,80.14
2018-11-06T20:05:22.283Z,80.27
2018-11-06T20:07:51.492Z,80.00
2018-11-06T20:10:21.300Z,79.68
2018-11-06T20:12:50.696Z,80.34
2018-11-06T20:15:19.112Z,80.05
2018-11-06T20:17:47.720Z,80.79
2018-11-06T20:20:17.630Z,81.21
2018-11-06T20:22:46.841Z,80.64
2018-11-06T20:25:15.199Z,80.80
2018-11-06T20:27:44.047Z,80.50
2018-11-06T20:30:14.681Z,80.42
2018-11-06T20:32:43.056Z,80.62
2018-11-06T20:35:12.153Z,80.80
2018-11-06T20:37:40.615Z,81.54
2018-11-06T20:40:11.061Z,81.56
2018-11-06T20:42:39.896Z,81.28
2018-11-06T20:45:09.456Z,81.23
2018-11-06T20:47:37.908Z,81.28
2018-11-06T20:50:09.016Z,81.64
2018-11-06T20:52:37.535Z,81.10
2018-11-06T20:55:06.723Z,82.16
2018-11-06T20:57:35.092Z,81.95
2018-11-06T21:00:03.694Z,82.04
2018-11-06T21:02:32.013Z,81.81
2018-11-06T21:05:00.349Z,82.10
2018-11-06T21:07:28.826Z,81.85
2018-11-06T21:09:57.179Z,81.36
2018-11-06T21:12:25.520Z,81.40
2018-11-06T21:14:54.178Z,80.74
2018-11-06T21:17:22.551Z,81.02
2018-11-06T21:19:51.002Z,81.39
2018-11-06T21:29:19.801Z,81.18
2018-11-06T21:31:48.166Z,80.73
2018-11-06T21:34:16.523Z,80.94
2018-11-06T21:36:44.861Z,81.95
2018-11-06T21:39:13.268Z,82.17
2018-11-06T21:41:41.590Z,81.68
2018-11-06T21:44:09.938Z,82.17
2018-11-06T21:46:38.279Z,81.66
2018-11-06T21:49:06.628Z,82.37
2018-11-06T21:51:34.979Z,82.51
2018-11-06T21:54:03.505Z,82.71
2018-11-06T21:56:31.872Z,84.07
2018-11-06T21:59:00.287Z,83.26
2018-11-06T22:01:29.099Z,83.83
2018-11-06T22:03:57.463Z,83.98
2018-11-06T22:06:26.094Z,83.53
2018-11-06T22:08:54.450Z,83.59
2018-11-06T22:11:22.795Z,83.35
2018-11-06T22:13:51.131Z,83.37
2018-11-06T22:16:19.488Z,83.40
2018-11-06T22:18:47.822Z,84.34
2018-11-06T22:21:16.204Z,84.03
2018-11-06T22:23:44.557Z,84.21
2018-11-06T22:26:12.902Z,84.43
2018-11-06T22:28:41.236Z,84.06
2018-11-06T22:31:09.583Z,84.40
2018-11-06T22:33:37.940Z,84.98
2018-11-06T22:36:06.313Z,84.88
2018-11-06T22:38:34.672Z,84.20
2018-11-06T22:41:03.075Z,84.71
2018-11-06T22:43:31.410Z,84.59
2018-11-06T22:45:59.770Z,84.93
2018-11-06T22:48:28.137Z,85.52
2018-11-06T22:50:56.483Z,84.19
2018-11-06T22:53:24.930Z,84.48
2018-11-06T22:55:53.202Z,85.05
2018-11-06T22:58:21.542Z,85.04
2018-11-06T23:00:55.262Z,84.47
2018-11-06T23:03:23.628Z,84.98
2018-11-06T23:05:51.991Z,84.90
2018-11-06T23:08:24.997Z,84.59
2018-11-06T23:10:53.584Z,85.09
2018-11-06T23:13:22.023Z,84.95
2018-11-06T23:15:50.358Z,85.09
2018-11-06T23:18:18.856Z,84.12
2018-11-06T23:20:47.233Z,84.79
2018-11-06T23:23:15.896Z,85.09
2018-11-06T23:25:44.241Z,85.10
2018-11-06T23:28:12.645Z,84.37
2018-11-06T23:30:40.999Z,85.43
2018-11-06T23:33:09.365Z,85.81
2018-11-06T23:35:37.735Z,85.70
2018-11-06T23:38:06.241Z,85.38
2018-11-06T23:40:34.589Z,85.35
2018-11-06T23:43:02.947Z,85.20
2018-11-06T23:45:31.312Z,85.22
2018-11-06T23:47:59.642Z,85.20
2018-11-06T23:50:28.001Z,85.47
2018-11-06T23:52:56.687Z,85.11
2018-11-06T23:55:25.054Z,85.09
2018-11-06T23:57:53.398Z,85.84
